createdAt,value
2019-06-07T00:01:30.353Z,99.90
2019-06-07T00:03:33.900Z,99.90
2019-06-07T00:05:37.903Z,99.90
2019-06-07T00:07:44.774Z,99.90
2019-06-07T00:09:52.199Z,99.90
2019-06-07T00:11:55.965Z,99.90
2019-06-07T00:13:59.832Z,99.90
2019-06-07T00:16:03.430Z,99.90
2019-06-07T00:18:11.121Z,99.90
2019-06-07T00:20:16.650Z,99.90
2019-06-07T00:22:31.564Z,99.90
2019-06-07T00:24:23.710Z,99.90
2019-06-07T00:26:27.308Z,99.90
2019-06-07T00:28:30.780Z,99.90
2019-06-07T00:30:50.207Z,99.90
2019-06-07T00:32:39.597Z,99.90
2019-06-07T00:34:43.137Z,99.90
2019-06-07T00:36:46.951Z,99.90
2019-06-07T00:38:50.489Z,99.90
2019-06-07T00:40:53.977Z,99.90
2019-06-07T00:42:57.545Z,99.90
2019-06-07T00:45:01.212Z,99.90
2019-06-07T00:47:04.830Z,99.90
2019-06-07T00:49:08.368Z,99.90
2019-06-07T00:51:13.918Z,99.90
2019-06-07T00:53:23.490Z,99.90
2019-06-07T00:55:27.063Z,99.90
2019-06-07T00:57:27.510Z,99.90
2019-06-07T00:59:31.091Z,99.90
2019-06-07T01:01:34.721Z,99.90
2019-06-07T01:03:38.201Z,99.90
2019-06-07T01:05:41.853Z,99.90
2019-06-07T01:07:45.967Z,99.90
2019-06-07T01:09:49.961Z,99.90
2019-06-07T01:11:53.506Z,99.90
2019-06-07T01:13:57.053Z,99.90
2019-06-07T01:16:00.632Z,99.90
2019-06-07T01:20:11.577Z,99.90
2019-06-07T01:22:16.460Z,99.90
2019-06-07T01:24:24.567Z,99.90
2019-06-07T01:26:29.452Z,99.90
2019-06-07T01:28:30.976Z,99.90
2019-06-07T01:30:34.603Z,99.90
2019-06-07T01:32:38.185Z,99.90
2019-06-07T01:34:41.656Z,99.90
2019-06-07T01:36:45.125Z,99.90
2019-06-07T01:38:48.599Z,99.90
2019-06-07T01:40:52.152Z,99.90
2019-06-07T01:42:56.022Z,99.90
2019-06-07T01:45:00.437Z,99.90
2019-06-07T01:47:04.060Z,99.90
2019-06-07T01:49:07.741Z,99.90
2019-06-07T01:51:11.316Z,99.90
2019-06-07T01:53:14.990Z,99.90
2019-06-07T01:55:19.645Z,99.90
2019-06-07T01:57:38.431Z,99.90
2019-06-07T01:59:31.626Z,99.90
2019-06-07T02:01:35.564Z,99.90
2019-06-07T02:03:39.355Z,99.90
2019-06-07T02:05:42.957Z,99.90
2019-06-07T02:07:46.500Z,99.90
2019-06-07T02:09:50.370Z,99.90
2019-06-07T02:11:53.914Z,99.90
2019-06-07T02:13:57.461Z,99.90
2019-06-07T02:16:01.381Z,99.90
2019-06-07T02:18:05.053Z,99.90
2019-06-07T02:20:09.232Z,99.90
2019-06-07T02:22:12.912Z,99.90
2019-06-07T02:24:16.476Z,99.90
2019-06-07T02:26:20.421Z,99.90
2019-06-07T02:28:36.510Z,99.90
2019-06-07T02:30:47.286Z,99.90
2019-06-07T02:32:37.030Z,99.90
2019-06-07T02:34:40.119Z,99.90
2019-06-07T02:36:43.729Z,99.90
2019-06-07T02:38:47.559Z,99.90
2019-06-07T02:40:51.101Z,99.90
2019-06-07T02:42:54.709Z,99.90
2019-06-07T02:44:58.257Z,99.90
2019-06-07T02:47:01.729Z,99.90
2019-06-07T02:49:05.380Z,99.90
2019-06-07T02:51:09.290Z,99.90
2019-06-07T02:53:12.837Z,99.90
2019-06-07T02:55:17.076Z,99.90
2019-06-07T02:57:20.923Z,99.90
2019-06-07T02:59:47.113Z,99.90
2019-06-07T03:01:32.442Z,99.90
2019-06-07T03:03:39.553Z,99.90
2019-06-07T03:05:43.207Z,99.90
2019-06-07T03:07:47.785Z,99.90
2019-06-07T03:09:52.069Z,99.90
2019-06-07T03:11:58.021Z,99.90
2019-06-07T03:14:02.833Z,99.90
2019-06-07T03:16:08.116Z,99.90
2019-06-07T03:18:34.406Z,99.90
2019-06-07T03:20:39.865Z,99.90
2019-06-07T03:22:43.660Z,99.90
2019-06-07T03:24:50.217Z,99.90
2019-06-07T03:27:34.182Z,99.90
2019-06-07T03:29:02.246Z,99.90
2019-06-07T03:31:05.789Z,99.90
2019-06-07T03:33:09.345Z,99.90
2019-06-07T03:35:13.477Z,99.90
2019-06-07T03:37:17.109Z,99.90
2019-06-07T03:39:20.654Z,99.90
2019-06-07T03:41:24.195Z,99.90
2019-06-07T03:43:29.826Z,99.90
2019-06-07T03:45:35.164Z,99.90
2019-06-07T03:47:41.952Z,99.90
2019-06-07T03:49:43.488Z,99.90
2019-06-07T03:51:47.273Z,99.90
2019-06-07T03:53:51.181Z,99.90
2019-06-07T03:55:55.087Z,99.90
2019-06-07T03:58:30.872Z,99.90
2019-06-07T04:00:07.004Z,99.90
2019-06-07T04:02:11.113Z,99.90
2019-06-07T04:04:14.729Z,99.90
2019-06-07T04:06:18.203Z,99.90
2019-06-07T04:08:21.749Z,99.90
2019-06-07T04:10:44.895Z,99.90
2019-06-07T04:12:34.202Z,99.90
2019-06-07T04:14:38.489Z,99.90
2019-06-07T04:16:44.806Z,99.90
2019-06-07T04:18:48.398Z,99.90
2019-06-07T04:20:52.327Z,99.90
2019-06-07T04:22:55.905Z,99.90
2019-06-07T04:25:02.473Z,99.90
2019-06-07T04:27:06.204Z,99.90
2019-06-07T04:29:32.290Z,99.90
2019-06-07T04:31:15.397Z,99.90
2019-06-07T04:33:18.950Z,99.90
2019-06-07T04:35:23.098Z,99.90
2019-06-07T04:37:28.484Z,99.90
2019-06-07T04:39:35.206Z,99.90
2019-06-07T04:41:41.275Z,99.90
2019-06-07T04:43:47.019Z,99.90
2019-06-07T04:45:51.579Z,99.90
2019-06-07T04:47:57.073Z,99.90
2019-06-07T04:50:03.514Z,99.90
2019-06-07T04:52:07.161Z,99.90
2019-06-07T04:54:11.022Z,99.90
2019-06-07T04:56:14.757Z,99.90
2019-06-07T04:58:18.231Z,99.90
2019-06-07T05:00:49.662Z,99.90
2019-06-07T05:02:42.728Z,99.90
2019-06-07T05:04:44.157Z,99.90
2019-06-07T05:06:47.785Z,99.90
2019-06-07T05:08:51.706Z,99.90
2019-06-07T05:10:55.692Z,99.90
2019-06-07T05:13:00.600Z,99.90
2019-06-07T05:15:05.387Z,99.90
2019-06-07T05:17:08.933Z,99.90
2019-06-07T05:19:12.511Z,99.90
2019-06-07T05:21:16.061Z,99.90
2019-06-07T05:24:00.116Z,99.90
2019-06-07T05:25:25.521Z,99.90
2019-06-07T05:27:33.590Z,99.90
2019-06-07T05:29:36.795Z,99.90
2019-06-07T05:31:44.913Z,99.90
2019-06-07T05:33:46.437Z,99.90
2019-06-07T05:35:50.055Z,99.90
2019-06-07T05:37:54.037Z,99.90
2019-06-07T05:39:57.941Z,99.90
2019-06-07T05:42:01.564Z,99.90
2019-06-07T05:44:12.672Z,99.90
2019-06-07T05:46:11.634Z,99.90
2019-06-07T05:48:16.094Z,99.90
2019-06-07T05:52:24.917Z,99.90
2019-06-07T05:54:28.385Z,99.90
2019-06-07T05:56:33.320Z,99.90
2019-06-07T05:58:37.793Z,99.90
2019-06-07T06:00:44.588Z,99.90
2019-06-07T06:03:04.174Z,99.90
2019-06-07T06:04:56.357Z,99.90
2019-06-07T06:07:00.170Z,99.90
2019-06-07T06:09:13.954Z,99.90
2019-06-07T06:11:11.053Z,99.90
2019-06-07T06:13:14.916Z,99.90
2019-06-07T06:15:18.825Z,99.90
2019-06-07T06:17:22.666Z,99.90
2019-06-07T06:19:26.282Z,99.90
2019-06-07T06:21:29.825Z,99.90
2019-06-07T06:23:33.379Z,99.90
2019-06-07T06:25:38.618Z,99.90
2019-06-07T06:28:05.905Z,99.90
2019-06-07T06:29:50.301Z,99.90
2019-06-07T06:32:39.477Z,99.90
2019-06-07T06:33:58.314Z,99.90
2019-06-07T06:36:01.857Z,99.90
2019-06-07T06:38:05.886Z,99.90
2019-06-07T06:40:10.425Z,99.90
2019-06-07T06:42:14.165Z,99.90
2019-06-07T06:44:17.641Z,99.90
2019-06-07T06:46:37.940Z,99.90
2019-06-07T06:48:27.285Z,99.90
2019-06-07T06:50:30.841Z,99.90
2019-06-07T06:52:34.314Z,99.90
2019-06-07T06:54:43.182Z,99.90
2019-06-07T06:56:45.632Z,99.90
2019-06-07T06:59:27.347Z,99.90
2019-06-07T07:01:05.983Z,99.90
2019-06-07T07:03:47.645Z,99.90
2019-06-07T07:05:08.022Z,99.90
2019-06-07T07:07:11.557Z,99.90
2019-06-07T07:09:15.293Z,99.90
2019-06-07T07:11:23.213Z,99.90
2019-06-07T07:13:24.968Z,99.90
2019-06-07T07:15:28.512Z,99.90
2019-06-07T07:17:50.665Z,99.90
2019-06-07T07:19:37.834Z,99.90
2019-06-07T07:21:42.133Z,95.00
2019-06-07T07:24:05.481Z,91.10
2019-06-07T07:25:58.074Z,91.50
2019-06-07T07:27:56.089Z,85.90
2019-06-07T07:30:34.691Z,80.40
2019-06-07T07:32:05.321Z,79.80
2019-06-07T07:34:34.926Z,75.10
2019-06-07T07:36:35.658Z,70.90
2019-06-07T07:38:19.802Z,69.00
2019-06-07T07:42:28.837Z,66.80
2019-06-07T07:44:33.266Z,62.70
2019-06-07T07:46:36.882Z,63.30
2019-06-07T07:48:40.577Z,61.80
2019-06-07T07:50:47.724Z,58.60
2019-06-07T07:52:56.080Z,57.80
2019-06-07T07:54:58.320Z,57.10
2019-06-07T07:57:01.514Z,57.00
2019-06-07T07:59:05.991Z,57.50
2019-06-07T08:01:11.241Z,60.00
2019-06-07T08:03:15.253Z,62.50
2019-06-07T08:05:25.659Z,64.20
2019-06-07T08:07:24.943Z,67.50
2019-06-07T08:09:28.845Z,69.20
2019-06-07T08:11:32.760Z,71.50
2019-06-07T08:13:37.413Z,75.90
2019-06-07T08:15:41.162Z,83.00
2019-06-07T08:17:47.357Z,92.50
2019-06-07T08:19:52.283Z,98.70
2019-06-07T08:21:55.925Z,99.90
2019-06-07T08:24:03.675Z,99.90
2019-06-07T08:26:05.021Z,99.90
2019-06-07T08:28:09.040Z,99.90
2019-06-07T08:30:47.081Z,99.90
2019-06-07T08:32:20.080Z,99.90
2019-06-07T08:34:23.905Z,99.90
2019-06-07T08:36:41.545Z,99.90
2019-06-07T08:38:47.114Z,97.80
2019-06-07T08:40:38.173Z,91.70
2019-06-07T08:42:59.722Z,86.00
2019-06-07T08:44:47.150Z,81.90
2019-06-07T08:46:56.646Z,77.00
2019-06-07T08:49:01.343Z,73.40
2019-06-07T08:51:08.047Z,70.20
2019-06-07T08:53:12.229Z,65.90
2019-06-07T08:55:15.093Z,64.00
2019-06-07T08:57:21.708Z,63.80
2019-06-07T08:59:23.830Z,63.00
2019-06-07T09:01:27.422Z,63.10
2019-06-07T09:03:30.969Z,62.10
2019-06-07T09:05:34.869Z,59.80
2019-06-07T09:07:38.406Z,58.70
2019-06-07T09:09:41.874Z,58.30
2019-06-07T09:11:45.786Z,58.80
2019-06-07T09:13:49.333Z,59.40
2019-06-07T09:15:53.686Z,60.00
2019-06-07T09:20:28.621Z,57.50
2019-06-07T09:22:12.297Z,58.40
2019-06-07T09:24:15.954Z,58.80
2019-06-07T09:26:19.854Z,60.00
2019-06-07T09:28:24.348Z,60.00
2019-06-07T09:30:45.242Z,59.50
2019-06-07T09:32:49.086Z,58.50
2019-06-07T09:34:52.702Z,57.80
2019-06-07T09:37:03.319Z,56.10
2019-06-07T09:39:08.257Z,54.40
2019-06-07T09:41:10.450Z,52.70
2019-06-07T09:45:19.404Z,52.00
2019-06-07T09:47:32.380Z,51.00
2019-06-07T09:49:32.640Z,50.50
2019-06-07T09:51:33.342Z,51.00
2019-06-07T09:53:37.170Z,54.10
2019-06-07T09:55:40.814Z,55.50
2019-06-07T09:57:44.339Z,55.90
2019-06-07T09:59:47.958Z,56.50
2019-06-07T10:01:51.502Z,56.50
2019-06-07T10:03:55.341Z,56.30
2019-06-07T10:06:00.386Z,57.20
2019-06-07T10:08:25.688Z,57.40
2019-06-07T10:12:15.130Z,56.80
2019-06-07T10:14:18.685Z,57.10
2019-06-07T10:16:22.230Z,57.50
2019-06-07T10:18:26.078Z,58.60
2019-06-07T10:20:29.959Z,57.90
2019-06-07T10:22:33.507Z,58.40
2019-06-07T10:24:37.217Z,58.00
2019-06-07T10:26:42.172Z,57.70
2019-06-07T10:28:46.166Z,58.30
2019-06-07T10:30:49.710Z,59.00
2019-06-07T10:32:53.257Z,59.40
2019-06-07T10:34:57.090Z,61.70
2019-06-07T10:37:03.430Z,60.40
2019-06-07T10:39:08.954Z,59.50
2019-06-07T10:41:13.932Z,58.90
2019-06-07T10:43:19.121Z,57.00
2019-06-07T10:45:23.060Z,55.70
2019-06-07T10:47:26.702Z,54.50
2019-06-07T10:49:30.311Z,53.80
2019-06-07T10:51:33.881Z,54.30
2019-06-07T10:53:38.041Z,54.10
2019-06-07T10:55:41.514Z,53.10
2019-06-07T10:57:45.115Z,52.30
2019-06-07T10:59:48.673Z,52.70
2019-06-07T11:01:52.228Z,52.20
2019-06-07T11:03:56.644Z,52.90
2019-06-07T11:06:00.186Z,52.80
2019-06-07T11:08:03.959Z,52.70
2019-06-07T11:10:13.372Z,52.70
2019-06-07T11:12:15.293Z,54.40
2019-06-07T11:14:19.050Z,55.90
2019-06-07T11:16:22.601Z,56.80
2019-06-07T11:18:26.458Z,58.80
2019-06-07T11:20:30.014Z,58.20
2019-06-07T11:22:33.554Z,59.00
2019-06-07T11:24:37.353Z,59.70
2019-06-07T11:26:40.970Z,60.40
2019-06-07T11:28:44.520Z,62.20
2019-06-07T11:30:48.558Z,62.90
2019-06-07T11:32:52.134Z,63.90
2019-06-07T11:34:57.615Z,64.00
2019-06-07T11:37:00.960Z,65.90
2019-06-07T11:39:08.411Z,67.50
2019-06-07T11:41:12.005Z,67.60
2019-06-07T11:43:15.793Z,70.20
2019-06-07T11:45:19.786Z,70.00
2019-06-07T11:47:23.544Z,67.70
2019-06-07T11:49:27.085Z,65.50
2019-06-07T11:51:30.553Z,66.10
2019-06-07T11:53:34.023Z,66.10
2019-06-07T11:55:37.683Z,67.00
2019-06-07T11:57:41.321Z,66.00
2019-06-07T11:59:45.080Z,65.50
2019-06-07T12:01:48.717Z,64.80
2019-06-07T12:03:52.575Z,64.50
2019-06-07T12:05:56.135Z,64.50
2019-06-07T12:07:59.665Z,64.00
2019-06-07T12:10:05.232Z,64.30
2019-06-07T12:12:10.269Z,64.00
2019-06-07T12:14:14.790Z,63.30
2019-06-07T12:16:19.415Z,64.00
2019-06-07T12:18:23.390Z,63.60
2019-06-07T12:20:26.936Z,63.70
2019-06-07T12:22:30.896Z,62.70
2019-06-07T12:24:34.479Z,61.20
2019-06-07T12:26:38.447Z,62.60
2019-06-07T12:28:41.986Z,62.80
2019-06-07T12:30:45.533Z,62.80
2019-06-07T12:32:49.465Z,65.20
2019-06-07T12:34:53.089Z,64.20
2019-06-07T12:36:56.638Z,64.90
2019-06-07T12:39:00.508Z,65.00
2019-06-07T12:41:04.215Z,65.50
2019-06-07T12:43:07.761Z,66.20
2019-06-07T12:45:12.974Z,66.00
2019-06-07T12:47:18.902Z,65.50
2019-06-07T12:49:23.585Z,65.20
2019-06-07T12:51:27.618Z,64.40
2019-06-07T12:53:31.174Z,64.70
2019-06-07T12:55:35.449Z,65.40
2019-06-07T12:57:39.291Z,65.30
2019-06-07T12:59:43.232Z,64.80
2019-06-07T13:01:48.317Z,63.90
2019-06-07T13:03:53.875Z,63.70
2019-06-07T13:05:57.705Z,61.90
2019-06-07T13:08:01.253Z,58.60
2019-06-07T13:10:07.056Z,59.00
2019-06-07T13:12:11.177Z,58.20
2019-06-07T13:14:16.049Z,56.80
2019-06-07T13:16:20.131Z,56.60
2019-06-07T13:18:25.134Z,55.50
2019-06-07T13:20:28.977Z,53.80
2019-06-07T13:22:32.585Z,53.80
2019-06-07T13:24:36.446Z,53.30
2019-06-07T13:26:40.022Z,53.20
2019-06-07T13:28:43.834Z,51.90
2019-06-07T13:30:48.457Z,52.00
2019-06-07T13:32:52.315Z,52.90
2019-06-07T13:34:56.193Z,52.60
2019-06-07T13:37:00.173Z,51.60
2019-06-07T13:39:05.616Z,52.40
2019-06-07T13:41:09.160Z,51.60
2019-06-07T13:43:13.541Z,51.20
2019-06-07T13:45:18.007Z,51.90
2019-06-07T13:47:23.150Z,55.20
2019-06-07T13:49:27.808Z,57.50
2019-06-07T13:51:34.587Z,60.20
2019-06-07T13:53:38.149Z,62.90
2019-06-07T13:55:41.694Z,62.60
2019-06-07T13:57:45.503Z,63.70
2019-06-07T13:59:49.278Z,65.60
2019-06-07T14:01:53.025Z,67.10
2019-06-07T14:03:56.506Z,68.50
2019-06-07T14:06:00.047Z,69.00
2019-06-07T14:08:03.602Z,69.10
2019-06-07T14:10:11.470Z,69.50
2019-06-07T14:12:13.782Z,71.30
2019-06-07T14:14:17.327Z,73.60
2019-06-07T14:16:22.091Z,72.20
2019-06-07T14:18:26.425Z,73.70
2019-06-07T14:20:33.021Z,75.10
2019-06-07T14:22:35.559Z,74.00
2019-06-07T14:24:39.404Z,75.90
2019-06-07T14:26:44.582Z,74.10
2019-06-07T14:28:48.337Z,74.90
2019-06-07T14:30:56.268Z,76.00
2019-06-07T14:33:00.631Z,78.20
2019-06-07T14:35:07.214Z,80.00
2019-06-07T14:37:10.753Z,80.80
2019-06-07T14:39:14.406Z,79.80
2019-06-07T14:41:17.953Z,78.30
2019-06-07T14:43:23.157Z,78.50
2019-06-07T14:45:27.729Z,78.10
2019-06-07T14:47:31.993Z,76.60
2019-06-07T14:49:35.562Z,75.60
2019-06-07T14:51:40.278Z,75.80
2019-06-07T14:53:43.826Z,75.00
2019-06-07T14:57:33.726Z,76.40
2019-06-07T14:59:38.805Z,78.20
2019-06-07T15:01:42.431Z,78.90
2019-06-07T15:05:04.604Z,76.50
2019-06-07T15:12:24.517Z,77.50
2019-06-07T15:14:21.517Z,83.60
2019-06-07T15:16:27.346Z,83.40
2019-06-07T15:18:31.622Z,80.70
2019-06-07T15:20:36.379Z,80.70
2019-06-07T15:22:40.132Z,81.90
2019-06-07T15:24:44.041Z,81.50
2019-06-07T15:26:47.913Z,79.80
2019-06-07T15:28:51.418Z,79.00
2019-06-07T15:30:55.061Z,80.70
2019-06-07T15:32:59.819Z,81.90
2019-06-07T15:35:06.643Z,82.50
2019-06-07T15:37:10.454Z,83.70
2019-06-07T15:39:15.030Z,82.80
2019-06-07T15:41:18.966Z,82.70
2019-06-07T15:43:22.569Z,82.30
2019-06-07T15:45:26.442Z,83.70
2019-06-07T15:47:31.609Z,85.00
2019-06-07T15:49:36.148Z,87.10
2019-06-07T15:51:40.997Z,86.30
2019-06-07T15:53:44.996Z,84.90
2019-06-07T15:55:48.573Z,88.00
2019-06-07T15:57:52.455Z,88.60
2019-06-07T15:59:56.346Z,90.30
2019-06-07T16:02:00.242Z,91.90
2019-06-07T16:04:04.109Z,94.00
2019-06-07T16:06:07.970Z,94.50
2019-06-07T16:08:11.849Z,95.40
2019-06-07T16:10:15.665Z,95.30
2019-06-07T16:12:19.418Z,96.20
2019-06-07T16:14:22.953Z,96.00
2019-06-07T16:16:26.500Z,95.00
2019-06-07T16:18:30.057Z,94.10
2019-06-07T16:20:33.598Z,94.60
2019-06-07T16:22:37.701Z,94.70
2019-06-07T16:24:41.867Z,94.30
2019-06-07T16:26:45.895Z,94.10
2019-06-07T16:28:49.953Z,94.60
2019-06-07T16:30:53.887Z,94.20
2019-06-07T16:32:57.366Z,93.00
2019-06-07T16:35:01.887Z,94.20
2019-06-07T16:37:05.595Z,95.50
2019-06-07T16:39:09.523Z,94.90
2019-06-07T16:41:13.053Z,95.20
2019-06-07T16:43:18.396Z,94.50
2019-06-07T16:45:22.838Z,94.80
2019-06-07T16:47:26.377Z,96.00
2019-06-07T16:49:30.178Z,98.20
2019-06-07T16:51:33.727Z,98.50
2019-06-07T16:53:38.288Z,98.90
2019-06-07T16:55:42.745Z,99.90
2019-06-07T16:57:47.158Z,99.90
2019-06-07T16:59:50.976Z,99.90
2019-06-07T17:01:54.813Z,99.90
2019-06-07T17:03:58.366Z,99.90
2019-06-07T17:06:02.332Z,99.90
2019-06-07T17:08:05.949Z,99.90
2019-06-07T17:10:11.406Z,99.90
2019-06-07T17:12:15.104Z,99.90
2019-06-07T17:14:18.888Z,99.90
2019-06-07T17:16:22.658Z,99.90
2019-06-07T17:18:26.204Z,99.90
2019-06-07T17:20:29.743Z,99.90
2019-06-07T17:22:33.663Z,99.90
2019-06-07T17:24:37.214Z,99.90
2019-06-07T17:26:41.636Z,99.90
2019-06-07T17:28:45.798Z,99.90
2019-06-07T17:30:50.337Z,99.90
2019-06-07T17:32:59.241Z,99.90
2019-06-07T17:35:00.517Z,99.90
2019-06-07T17:37:04.069Z,99.90
2019-06-07T17:39:09.094Z,99.90
2019-06-07T17:41:12.641Z,99.90
2019-06-07T17:43:16.230Z,99.90
2019-06-07T17:45:20.415Z,99.90
2019-06-07T17:47:24.035Z,99.90
2019-06-07T17:49:27.583Z,99.90
2019-06-07T17:51:31.393Z,99.90
2019-06-07T17:53:35.867Z,99.90
2019-06-07T17:55:39.765Z,99.90
2019-06-07T17:57:44.299Z,99.90
2019-06-07T17:59:48.545Z,99.90
2019-06-07T18:02:13.300Z,99.90
2019-06-07T18:03:58.310Z,99.90
2019-06-07T18:06:03.609Z,99.90
2019-06-07T18:08:07.867Z,99.90
2019-06-07T18:10:11.979Z,99.90
2019-06-07T18:12:15.619Z,99.90
2019-06-07T18:14:19.983Z,99.90
2019-06-07T18:16:24.277Z,99.90
2019-06-07T18:18:27.873Z,99.90
2019-06-07T18:20:31.417Z,99.90
2019-06-07T18:22:35.246Z,99.90
2019-06-07T18:24:38.810Z,99.90
2019-06-07T18:26:42.345Z,99.90
2019-06-07T18:28:46.609Z,99.90
2019-06-07T18:30:50.814Z,99.90
2019-06-07T18:32:55.113Z,99.90
2019-06-07T18:35:00.427Z,99.90
2019-06-07T18:37:04.730Z,99.90
2019-06-07T18:39:10.629Z,99.90
2019-06-07T18:41:14.641Z,99.90
2019-06-07T18:43:18.602Z,99.90
2019-06-07T18:45:22.278Z,99.90
2019-06-07T18:47:25.936Z,99.90
2019-06-07T18:49:30.297Z,99.90
2019-06-07T18:51:33.873Z,99.90
2019-06-07T18:53:38.289Z,99.90
2019-06-07T18:55:42.226Z,99.90
2019-06-07T18:57:48.149Z,99.90
2019-06-07T18:59:52.321Z,99.90
2019-06-07T19:01:57.606Z,99.90
2019-06-07T19:04:01.966Z,99.90
2019-06-07T19:06:05.568Z,99.90
2019-06-07T19:08:09.673Z,99.90
2019-06-07T19:10:16.387Z,99.90
2019-06-07T19:12:20.279Z,99.90
2019-06-07T19:14:36.553Z,99.90
2019-06-07T19:16:30.754Z,99.90
2019-06-07T19:18:34.406Z,99.90
2019-06-07T19:20:38.357Z,99.90
2019-06-07T19:22:42.510Z,99.90
2019-06-07T19:24:46.096Z,99.90
2019-06-07T19:26:50.520Z,99.90
2019-06-07T19:28:54.619Z,99.90
2019-06-07T19:30:59.185Z,99.90
2019-06-07T19:33:03.139Z,99.90
2019-06-07T19:35:07.669Z,99.90
2019-06-07T19:37:12.061Z,99.90
2019-06-07T19:39:15.997Z,99.90
2019-06-07T19:41:20.070Z,99.90
2019-06-07T19:43:24.081Z,99.90
2019-06-07T19:45:30.649Z,99.90
2019-06-07T19:47:35.538Z,99.90
2019-06-07T19:49:39.403Z,99.90
2019-06-07T19:51:43.610Z,99.90
2019-06-07T19:53:50.120Z,99.90
2019-06-07T19:55:53.671Z,99.90
2019-06-07T19:57:57.506Z,99.90
2019-06-07T20:00:02.683Z,99.90
2019-06-07T20:02:06.698Z,99.90
2019-06-07T20:04:10.234Z,99.90
2019-06-07T20:06:13.763Z,99.90
2019-06-07T20:08:17.317Z,99.90
2019-06-07T20:10:21.039Z,99.90
2019-06-07T20:12:24.594Z,99.90
2019-06-07T20:14:28.987Z,99.90
2019-06-07T20:16:32.566Z,99.90
2019-06-07T20:18:36.393Z,99.90
2019-06-07T20:20:40.863Z,99.90
2019-06-07T20:22:44.417Z,99.90
2019-06-07T20:24:48.213Z,99.90
2019-06-07T20:26:52.115Z,99.90
2019-06-07T20:28:57.070Z,99.90
2019-06-07T20:31:02.131Z,99.90
2019-06-07T20:33:08.074Z,99.90
2019-06-07T20:35:12.594Z,99.90
2019-06-07T20:37:16.961Z,99.90
2019-06-07T20:39:20.871Z,99.90
2019-06-07T20:41:24.414Z,99.90
2019-06-07T20:43:28.291Z,99.90
2019-06-07T20:45:34.014Z,99.90
2019-06-07T20:47:37.823Z,99.90
2019-06-07T20:49:41.589Z,99.90
2019-06-07T20:51:45.553Z,99.90
2019-06-07T20:53:49.125Z,99.90
2019-06-07T20:55:53.067Z,99.90
2019-06-07T20:57:56.573Z,99.90
2019-06-07T21:00:02.501Z,99.90
2019-06-07T21:02:07.083Z,99.90
2019-06-07T21:04:10.852Z,99.90
2019-06-07T21:06:15.398Z,99.90
2019-06-07T21:08:19.009Z,99.90
2019-06-07T21:10:22.492Z,99.90
2019-06-07T21:12:26.036Z,99.90
2019-06-07T21:14:29.505Z,99.90
2019-06-07T21:16:32.977Z,99.90
2019-06-07T21:18:36.803Z,99.90
2019-06-07T21:20:40.689Z,99.90
2019-06-07T21:22:44.198Z,99.90
2019-06-07T21:24:47.861Z,99.90
2019-06-07T21:26:53.354Z,99.90
2019-06-07T21:28:57.015Z,99.90
2019-06-07T21:31:00.559Z,99.90
2019-06-07T21:33:05.456Z,99.90
2019-06-07T21:35:10.303Z,99.90
2019-06-07T21:37:13.898Z,99.90
2019-06-07T21:39:17.505Z,99.90
2019-06-07T21:41:21.397Z,99.90
2019-06-07T21:43:25.322Z,99.90
2019-06-07T21:45:29.206Z,99.90
2019-06-07T21:47:33.040Z,99.90
2019-06-07T21:49:36.589Z,99.90
2019-06-07T21:51:40.173Z,99.90
2019-06-07T21:53:44.003Z,99.90
2019-06-07T21:55:47.750Z,99.90
2019-06-07T21:57:51.214Z,99.90
2019-06-07T21:59:54.997Z,99.90
2019-06-07T22:01:58.810Z,99.90
2019-06-07T22:04:03.514Z,99.90
2019-06-07T22:06:07.659Z,99.90
2019-06-07T22:08:12.329Z,99.90
2019-06-07T22:10:16.217Z,99.90
2019-06-07T22:12:19.851Z,99.90
2019-06-07T22:14:24.283Z,99.90
2019-06-07T22:16:29.445Z,99.90
2019-06-07T22:18:33.030Z,99.90
2019-06-07T22:20:36.579Z,99.90
2019-06-07T22:22:40.409Z,99.90
2019-06-07T22:24:43.920Z,99.90
2019-06-07T22:26:47.461Z,99.90
2019-06-07T22:28:50.938Z,99.90
2019-06-07T22:30:54.589Z,99.90
2019-06-07T22:32:59.469Z,99.90
2019-06-07T22:35:03.674Z,99.90
2019-06-07T22:37:07.230Z,99.90
2019-06-07T22:39:11.687Z,99.90
2019-06-07T22:41:15.928Z,99.90
2019-06-07T22:43:20.557Z,99.90
2019-06-07T22:45:24.117Z,99.90
2019-06-07T22:47:27.589Z,99.90
2019-06-07T22:49:31.058Z,99.90
2019-06-07T22:51:34.877Z,99.90
2019-06-07T22:53:40.321Z,99.90
2019-06-07T22:55:46.137Z,99.90
2019-06-07T22:57:57.168Z,99.90
2019-06-07T23:00:08.567Z,99.90
2019-06-07T23:02:06.722Z,99.90
2019-06-07T23:04:10.590Z,99.90
2019-06-07T23:06:14.738Z,99.90
2019-06-07T23:08:19.116Z,99.90
2019-06-07T23:10:22.929Z,99.90
2019-06-07T23:12:27.317Z,99.90
2019-06-07T23:14:30.839Z,99.90
2019-06-07T23:16:34.373Z,99.90
2019-06-07T23:18:38.288Z,99.90
2019-06-07T23:20:41.745Z,99.90
2019-06-07T23:22:45.633Z,99.90
2019-06-07T23:24:49.434Z,99.90
2019-06-07T23:26:52.983Z,99.90
2019-06-07T23:28:56.527Z,99.90
2019-06-07T23:31:00.366Z,99.90
2019-06-07T23:33:04.286Z,99.90
2019-06-07T23:35:08.208Z,99.90
2019-06-07T23:37:13.028Z,99.90
2019-06-07T23:39:17.222Z,99.90
2019-06-07T23:41:22.311Z,99.90
2019-06-07T23:43:25.913Z,99.90
2019-06-07T23:45:29.814Z,99.90
2019-06-07T23:47:33.392Z,99.90
2019-06-07T23:49:36.961Z,99.90
2019-06-07T23:51:41.397Z,99.90
2019-06-07T23:53:44.868Z,99.90
2019-06-07T23:55:48.449Z,99.90
2019-06-07T23:57:52.217Z,99.90
2019-06-07T23:59:56.150Z,99.90
